Time;durP1;ratioP1;P1;durP2;ratioP2;P2;SDS_P1;SDS_P2;PMS_P1;PMS_P2;Temp;Humidity;BMP_temperature;BMP_pressure;BME280_temperature;BME280_humidity;BME280_pressure;Samples;Min_cycle;Max_cycle;Signal;HPM_P1;HPM_P2
2021/12/21 00:04:25;;;;;;;17.77;12.20;;;7.00;83.30;;;;;;10828770;32;20024;-69
2021/12/21 00:10:30;;;;;;;14.32;10.13;;;7.20;83.10;;;;;;10828568;33;20063;-69
2021/12/21 00:28:56;;;;;;;15.82;10.10;;;7.20;83.30;;;;;;10828197;33;20450;-69
2021/12/21 00:34:58;;;;;;;13.82;9.52;;;7.30;83.30;;;;;;10827846;32;20062;-69
2021/12/21 00:41:01;;;;;;;14.75;11.43;;;7.40;83.30;;;;;;10813646;32;20286;-69
2021/12/21 00:47:03;;;;;;;17.00;11.50;;;7.60;83.30;;;;;;10827641;33;20389;-69
2021/12/21 00:53:05;;;;;;;11.50;8.40;;;7.60;83.10;;;;;;10827115;33;20051;-69
2021/12/21 00:59:08;;;;;;;12.45;7.80;;;7.70;82.70;;;;;;10827248;33;20039;-69
2021/12/21 01:05:24;;;;;;;9.65;7.32;;;7.80;82.40;;;;;;10823178;33;20055;-69
2021/12/21 01:18:12;;;;;;;12.70;8.50;;;7.60;83.10;;;;;;10641975;33;20042;-69
2021/12/21 01:24:39;;;;;;;15.40;10.27;;;7.60;82.60;;;;;;10641009;33;20025;-70
2021/12/21 01:36:58;;;;;;;12.70;7.95;;;7.60;82.60;;;;;;10640502;33;20030;-69
2021/12/21 01:49:58;;;;;;;11.02;7.72;;;7.60;82.00;;;;;;10679609;33;20036;-69
2021/12/21 01:55:53;;;;;;;8.73;5.68;;;7.60;82.50;;;;;;10599809;33;20320;-69
2021/12/21 02:01:55;;;;;;;12.55;8.13;;;8.00;82.50;;;;;;10592884;33;20398;-69
2021/12/21 02:07:57;;;;;;;12.07;8.05;;;8.10;82.40;;;;;;10604189;33;20053;-69
2021/12/21 02:14:00;;;;;;;10.45;7.87;;;7.90;82.10;;;;;;10604908;33;20026;-69
2021/12/21 02:20:26;;;;;;;12.73;7.70;;;8.10;82.50;;;;;;10604774;33;20049;-69
2021/12/21 02:32:32;;;;;;;11.40;7.55;;;8.40;81.40;;;;;;10787897;32;20312;-69
2021/12/21 02:38:34;;;;;;;17.67;8.88;;;8.20;81.70;;;;;;10785488;33;20050;-69
2021/12/21 02:44:38;;;;;;;10.63;6.97;;;8.20;81.50;;;;;;10787676;33;20332;-69
2021/12/21 02:51:11;;;;;;;14.40;9.80;;;8.20;81.40;;;;;;10787260;33;20033;-73
2021/12/21 02:57:13;;;;;;;12.93;7.68;;;8.40;81.30;;;;;;10774173;33;20020;-73
2021/12/21 03:03:16;;;;;;;9.77;6.45;;;8.50;81.00;;;;;;10789313;33;20020;-73
2021/12/21 03:15:28;;;;;;;10.48;6.57;;;8.70;80.90;;;;;;10793473;33;20401;-73
2021/12/21 03:21:32;;;;;;;9.82;4.75;;;8.80;80.70;;;;;;10793243;33;20031;-73
2021/12/21 03:27:35;;;;;;;9.65;6.03;;;8.70;80.30;;;;;;10793021;33;20024;-73
2021/12/21 03:33:37;;;;;;;8.38;5.55;;;8.50;81.00;;;;;;10792666;33;20060;-73
2021/12/21 03:39:41;;;;;;;11.77;7.07;;;8.60;80.80;;;;;;10792708;32;20028;-73
2021/12/21 03:45:52;;;;;;;11.35;7.05;;;8.70;80.80;;;;;;10792508;33;20332;-69
2021/12/21 03:51:54;;;;;;;12.95;7.82;;;8.70;80.70;;;;;;10792368;32;20023;-69
2021/12/21 03:57:56;;;;;;;10.75;6.68;;;8.70;80.60;;;;;;10792285;33;20059;-69
2021/12/21 04:03:58;;;;;;;9.32;5.80;;;8.80;80.60;;;;;;10791896;33;20047;-69
2021/12/21 04:10:01;;;;;;;8.35;5.03;;;8.70;80.30;;;;;;10791770;32;20149;-69
2021/12/21 04:16:05;;;;;;;7.60;3.95;;;8.80;80.50;;;;;;10791523;33;20051;-69
2021/12/21 04:22:07;;;;;;;9.00;4.85;;;8.80;80.60;;;;;;10778417;32;20032;-69
2021/12/21 04:28:09;;;;;;;9.20;4.45;;;8.90;80.40;;;;;;10791328;33;20051;-70
2021/12/21 04:34:11;;;;;;;8.50;4.55;;;9.00;80.00;;;;;;10791009;33;20043;-69
2021/12/21 04:40:20;;;;;;;6.00;3.47;;;8.90;80.40;;;;;;10790982;33;20344;-69
2021/12/21 04:46:23;;;;;;;9.80;4.53;;;8.90;80.40;;;;;;10790777;33;20039;-69
2021/12/21 04:52:25;;;;;;;7.55;4.62;;;8.80;80.60;;;;;;10790523;33;20212;-69
2021/12/21 04:58:27;;;;;;;10.88;6.03;;;9.00;80.50;;;;;;10790565;33;20015;-69
2021/12/21 05:04:29;;;;;;;9.57;5.37;;;9.10;80.40;;;;;;10790261;33;20020;-69
2021/12/21 05:10:42;;;;;;;6.40;3.40;;;9.20;80.10;;;;;;10790002;33;20028;-69
2021/12/21 05:16:44;;;;;;;8.05;5.03;;;9.20;79.80;;;;;;10789884;33;20043;-70
2021/12/21 05:22:48;;;;;;;11.82;5.95;;;9.20;80.00;;;;;;10789047;33;20020;-73
2021/12/21 05:28:51;;;;;;;9.23;5.07;;;9.20;80.00;;;;;;10789107;32;20020;-73
2021/12/21 05:34:53;;;;;;;12.63;5.62;;;9.20;79.90;;;;;;10789278;33;20024;-73
2021/12/21 05:40:56;;;;;;;8.57;5.90;;;9.20;79.80;;;;;;10789114;33;20332;-73
2021/12/21 05:46:59;;;;;;;13.88;7.20;;;9.20;79.70;;;;;;10789055;33;20320;-73
2021/12/21 05:53:01;;;;;;;7.22;4.87;;;8.90;79.80;;;;;;10784794;33;20028;-73
2021/12/21 05:59:03;;;;;;;8.52;5.70;;;8.80;80.10;;;;;;10787904;33;20046;-73
2021/12/21 06:05:06;;;;;;;9.07;4.68;;;8.70;80.20;;;;;;10788649;33;20424;-73
2021/12/21 06:11:08;;;;;;;8.75;5.43;;;8.70;80.30;;;;;;10775449;33;20070;-73
2021/12/21 06:30:24;;;;;;;9.88;6.05;;;8.40;80.70;;;;;;10826733;32;20483;-73
2021/12/21 06:36:26;;;;;;;12.00;7.30;;;8.50;80.90;;;;;;10825825;32;20028;-73
2021/12/21 06:42:29;;;;;;;10.05;5.97;;;8.40;80.20;;;;;;10833674;32;20396;-73
2021/12/21 06:55:00;;;;;;;7.65;5.22;;;8.00;80.90;;;;;;10833634;32;20397;-73
2021/12/21 07:01:03;;;;;;;7.40;3.87;;;8.20;81.30;;;;;;10833409;32;20020;-73
2021/12/21 07:07:06;;;;;;;9.30;4.75;;;8.40;81.00;;;;;;10799104;32;20033;-73
2021/12/21 07:19:34;;;;;;;6.47;3.62;;;8.50;81.00;;;;;;10757222;33;20055;-73
2021/12/21 07:25:36;;;;;;;5.80;3.83;;;8.60;81.00;;;;;;10754902;33;20051;-73
2021/12/21 07:32:02;;;;;;;11.35;5.78;;;8.70;81.00;;;;;;10755564;33;20059;-73
2021/12/21 07:38:04;;;;;;;11.50;5.20;;;8.80;80.80;;;;;;10743130;33;20021;-73
2021/12/21 07:44:08;;;;;;;10.25;6.05;;;8.80;80.30;;;;;;10755976;33;20021;-73
2021/12/21 07:50:11;;;;;;;11.52;6.35;;;8.80;80.60;;;;;;10758809;33;20052;-73
2021/12/21 07:56:16;;;;;;;9.70;6.15;;;8.70;80.50;;;;;;10772925;32;20051;-73
2021/12/21 08:02:18;;;;;;;11.60;6.12;;;8.80;80.90;;;;;;10791798;33;20055;-74
2021/12/21 08:08:23;;;;;;;10.57;6.70;;;8.80;81.10;;;;;;10791628;33;20021;-73
2021/12/21 08:14:25;;;;;;;8.43;4.47;;;8.70;80.10;;;;;;10791245;33;20016;-73
2021/12/21 08:20:27;;;;;;;7.75;5.10;;;8.70;81.00;;;;;;10791415;33;20397;-73
2021/12/21 08:26:48;;;;;;;15.18;8.52;;;8.80;81.10;;;;;;10788440;33;20035;-73
2021/12/21 08:32:50;;;;;;;11.18;7.93;;;8.90;81.10;;;;;;10791139;33;20344;-74
2021/12/21 08:38:52;;;;;;;7.50;4.82;;;8.80;80.80;;;;;;10790782;33;20016;-73
2021/12/21 08:44:56;;;;;;;13.05;5.90;;;8.70;81.10;;;;;;10789956;32;20020;-73
2021/12/21 08:51:00;;;;;;;12.63;7.10;;;8.80;81.50;;;;;;10790671;33;20039;-73
2021/12/21 08:57:02;;;;;;;7.85;4.95;;;8.90;81.20;;;;;;10789005;33;20028;-73
2021/12/21 09:03:05;;;;;;;11.73;7.50;;;8.90;81.00;;;;;;10786384;33;20020;-74
2021/12/21 09:09:08;;;;;;;13.30;7.60;;;8.80;80.60;;;;;;10790017;33;20066;-73
2021/12/21 09:15:12;;;;;;;9.55;6.03;;;8.50;80.20;;;;;;10789743;33;20028;-73
2021/12/21 09:21:14;;;;;;;11.55;7.28;;;8.30;80.90;;;;;;10776446;33;20025;-73
2021/12/21 09:27:18;;;;;;;9.88;6.75;;;8.30;81.00;;;;;;10776050;33;20016;-73
2021/12/21 09:33:20;;;;;;;9.95;6.53;;;8.30;81.10;;;;;;10752869;33;20093;-73
2021/12/21 09:39:22;;;;;;;8.43;5.30;;;8.40;81.50;;;;;;10752712;33;20025;-73
2021/12/21 09:45:25;;;;;;;7.75;5.20;;;8.40;81.40;;;;;;10225029;32;17051621;-73
2021/12/21 09:51:27;;;;;;;11.75;7.12;;;8.70;81.60;;;;;;10748057;33;20029;-73
2021/12/21 09:57:29;;;;;;;13.38;9.25;;;8.60;80.90;;;;;;10748758;33;20040;-73
2021/12/21 10:03:31;;;;;;;10.85;7.45;;;8.50;81.90;;;;;;10748979;32;20032;-73
2021/12/21 10:09:35;;;;;;;11.77;5.78;;;8.60;81.40;;;;;;10765551;33;20028;-73
2021/12/21 10:15:45;;;;;;;11.40;7.00;;;8.70;81.90;;;;;;10787995;33;20016;-73
2021/12/21 10:21:47;;;;;;;;;;;9.00;82.10;;;;;;10788019;33;20024;-73
2021/12/21 10:27:49;;;;;;;12.02;6.22;;;9.20;81.80;;;;;;10788109;33;19974;-73
2021/12/21 10:33:52;;;;;;;9.70;6.65;;;9.20;81.80;;;;;;10787569;33;20024;-73
2021/12/21 10:40:26;;;;;;;11.82;7.95;;;9.40;81.20;;;;;;10787061;33;20028;-73
2021/12/21 10:46:30;;;;;;;9.88;5.20;;;9.30;81.00;;;;;;10787645;33;20066;-73
2021/12/21 10:52:32;;;;;;;11.18;7.50;;;9.30;81.70;;;;;;10785213;33;20074;-73
2021/12/21 10:58:40;;;;;;;14.23;9.57;;;9.20;81.50;;;;;;10787289;33;20038;-74
2021/12/21 11:04:51;;;;;;;12.00;7.30;;;9.20;81.70;;;;;;10774251;33;20332;-73
2021/12/21 11:10:58;;;;;;;8.65;5.47;;;8.90;81.80;;;;;;10786839;33;20044;-73
2021/12/21 11:17:02;;;;;;;12.48;7.62;;;9.20;82.20;;;;;;10786809;33;20028;-73
2021/12/21 11:23:06;;;;;;;12.90;8.80;;;9.30;81.90;;;;;;10783633;33;20024;-73
2021/12/21 11:29:12;;;;;;;10.98;7.97;;;9.00;81.90;;;;;;10792981;33;20333;-73
2021/12/21 11:41:22;;;;;;;12.37;8.07;;;8.80;81.90;;;;;;10792544;33;20055;-73
2021/12/21 11:47:56;;;;;;;9.60;5.80;;;8.70;82.10;;;;;;10790974;33;20046;-72
2021/12/21 11:53:58;;;;;;;10.63;7.57;;;8.70;82.50;;;;;;10779064;33;20470;-72
2021/12/21 12:00:16;;;;;;;13.20;7.45;;;8.90;82.30;;;;;;10787451;33;20021;-73
2021/12/21 12:06:18;;;;;;;11.15;7.32;;;9.00;82.00;;;;;;10790099;32;20090;-73
2021/12/21 12:13:17;;;;;;;14.13;9.32;;;9.20;82.00;;;;;;10791424;33;20024;-72
2021/12/21 12:19:27;;;;;;;11.27;7.28;;;9.10;81.80;;;;;;10867671;32;20077;-73
2021/12/21 12:25:29;;;;;;;14.20;9.05;;;9.30;82.20;;;;;;10862937;32;20082;-73
2021/12/21 12:31:34;;;;;;;12.25;7.32;;;9.50;81.70;;;;;;10866715;32;20396;-69
2021/12/21 12:37:54;;;;;;;9.60;5.97;;;9.60;81.60;;;;;;10866250;32;20426;-70
2021/12/21 12:43:56;;;;;;;11.68;6.93;;;9.40;81.30;;;;;;10865107;32;20096;-70
2021/12/21 12:49:58;;;;;;;8.13;5.68;;;9.30;81.70;;;;;;10832614;32;20459;-70
2021/12/21 12:56:03;;;;;;;18.58;7.75;;;9.70;82.00;;;;;;10753705;33;20321;-70
2021/12/21 13:02:09;;;;;;;11.65;7.65;;;9.90;82.00;;;;;;10753796;33;20024;-70
2021/12/21 13:08:15;;;;;;;11.00;6.53;;;10.10;81.60;;;;;;10753634;33;20298;-70
2021/12/21 13:14:17;;;;;;;12.27;7.32;;;9.80;80.70;;;;;;10753333;33;20028;-69
2021/12/21 13:20:25;;;;;;;7.65;5.60;;;9.80;81.30;;;;;;10753273;33;20024;-70
2021/12/21 13:26:48;;;;;;;11.65;6.95;;;10.00;82.00;;;;;;10740371;32;20016;-70
2021/12/21 13:32:56;;;;;;;8.40;5.75;;;10.10;81.70;;;;;;10753013;33;20067;-70
2021/12/21 13:39:02;;;;;;;9.53;6.57;;;10.20;81.70;;;;;;10752682;33;20025;-70
2021/12/21 13:45:05;;;;;;;11.23;7.25;;;10.10;81.50;;;;;;10752678;33;20047;-70
2021/12/21 13:51:16;;;;;;;7.12;4.97;;;10.20;81.60;;;;;;10785528;33;20024;-69
2021/12/21 13:57:20;;;;;;;11.48;6.53;;;10.20;81.50;;;;;;10788699;33;20082;-69
2021/12/21 14:09:27;;;;;;;8.50;5.68;;;10.20;81.40;;;;;;10788693;33;20041;-69
2021/12/21 14:15:44;;;;;;;19.75;10.32;;;10.40;81.10;;;;;;10788301;33;20056;-70
2021/12/21 14:21:50;;;;;;;15.35;7.10;;;10.20;80.70;;;;;;10774640;33;20024;-70
2021/12/21 14:28:13;;;;;;;9.68;6.22;;;10.10;80.90;;;;;;10777155;33;20104;-70
2021/12/21 14:34:32;;;;;;;10.18;6.53;;;9.90;80.90;;;;;;10787877;33;20063;-69
2021/12/21 14:40:46;;;;;;;10.67;7.97;;;9.80;81.50;;;;;;10783597;33;20036;-69
2021/12/21 14:47:00;;;;;;;11.88;6.82;;;9.90;81.40;;;;;;10758359;33;20409;-69
2021/12/21 14:53:02;;;;;;;8.98;6.12;;;9.90;81.60;;;;;;10760973;33;20032;-69
2021/12/21 14:59:07;;;;;;;11.52;7.70;;;9.80;81.30;;;;;;10766882;33;20058;-70
2021/12/21 15:05:12;;;;;;;11.60;6.78;;;9.80;81.30;;;;;;10761094;33;20078;-69
2021/12/21 15:11:23;;;;;;;10.38;7.18;;;9.80;81.80;;;;;;10789271;33;20400;-70
2021/12/21 15:17:25;;;;;;;11.27;6.80;;;9.70;81.10;;;;;;10780140;33;20036;-69
2021/12/21 15:23:27;;;;;;;9.85;7.03;;;9.70;81.70;;;;;;10791771;33;20023;-69
2021/12/21 15:29:29;;;;;;;12.65;7.95;;;9.90;81.50;;;;;;10793007;33;20020;-70
2021/12/21 15:35:37;;;;;;;8.55;6.25;;;10.00;81.30;;;;;;10792878;33;20105;-69
2021/12/21 15:41:40;;;;;;;9.75;5.80;;;10.00;81.30;;;;;;10788523;33;20064;-70
2021/12/21 15:47:42;;;;;;;10.45;7.50;;;9.80;81.00;;;;;;10792461;33;20042;-70
2021/12/21 15:53:45;;;;;;;9.00;5.93;;;9.80;81.70;;;;;;10792312;32;20054;-70
2021/12/21 15:59:47;;;;;;;9.05;5.70;;;9.70;81.80;;;;;;10792162;33;20419;-69
2021/12/21 16:05:50;;;;;;;8.82;5.35;;;9.70;81.60;;;;;;10791854;33;20025;-70
2021/12/21 16:11:52;;;;;;;9.38;6.55;;;9.70;81.80;;;;;;10791707;33;20384;-71
2021/12/21 16:17:54;;;;;;;10.10;6.20;;;9.70;81.90;;;;;;10778467;33;20032;-71
2021/12/21 16:24:27;;;;;;;9.68;6.70;;;9.70;81.70;;;;;;10791189;32;20345;-71
2021/12/21 16:30:35;;;;;;;12.82;8.57;;;9.50;81.70;;;;;;10790625;33;20384;-73
2021/12/21 16:36:37;;;;;;;9.90;6.55;;;9.50;81.80;;;;;;10776603;33;20020;-74
2021/12/21 16:42:47;;;;;;;8.88;5.53;;;9.50;81.80;;;;;;10777456;33;20063;-73
2021/12/21 16:56:04;;;;;;;10.00;6.85;;;9.50;81.70;;;;;;10827518;32;20024;-73
2021/12/21 17:02:07;;;;;;;10.80;7.60;;;9.40;82.00;;;;;;10827215;33;20042;-73
2021/12/21 17:08:17;;;;;;;12.07;7.75;;;9.40;81.70;;;;;;10822945;33;20094;-74
2021/12/21 17:14:20;;;;;;;10.18;6.75;;;9.50;81.70;;;;;;10826897;33;20391;-73
2021/12/21 17:20:23;;;;;;;8.77;6.05;;;9.40;81.30;;;;;;10826112;32;20043;-73
2021/12/21 17:26:26;;;;;;;10.65;7.22;;;9.30;81.80;;;;;;10826081;33;20036;-73
2021/12/21 17:32:28;;;;;;;11.98;7.18;;;9.20;81.80;;;;;;10824405;33;20019;-74
2021/12/21 17:38:55;;;;;;;11.88;7.90;;;9.20;81.90;;;;;;10826398;33;20063;-73
2021/12/21 17:44:57;;;;;;;13.85;7.85;;;9.10;82.00;;;;;;10829237;27;20320;-73
2021/12/21 17:51:03;;;;;;;12.90;7.57;;;9.00;81.60;;;;;;10825806;33;20059;-74
2021/12/21 17:57:06;;;;;;;15.93;8.50;;;8.90;82.20;;;;;;10821682;33;20062;-74
2021/12/21 18:03:39;;;;;;;13.13;8.20;;;8.90;82.20;;;;;;10825275;33;20050;-72
2021/12/21 18:09:56;;;;;;;10.25;6.22;;;8.80;82.60;;;;;;10821376;32;20032;-74
2021/12/21 18:15:58;;;;;;;12.07;8.02;;;8.80;82.70;;;;;;10825162;33;20054;-74
2021/12/21 18:22:00;;;;;;;11.48;8.90;;;8.90;82.80;;;;;;10825131;32;20089;-73
2021/12/21 18:28:11;;;;;;;15.15;9.90;;;9.00;82.70;;;;;;10824709;33;20081;-73
2021/12/21 18:34:14;;;;;;;14.18;8.52;;;9.00;82.50;;;;;;10824530;32;20048;-74
2021/12/21 18:40:21;;;;;;;18.08;11.27;;;8.90;82.60;;;;;;10824738;32;20393;-74
2021/12/21 18:46:23;;;;;;;11.30;7.68;;;9.00;82.80;;;;;;10824390;33;20050;-74
2021/12/21 18:52:26;;;;;;;14.35;8.45;;;8.90;82.70;;;;;;10824064;33;20028;-74
2021/12/21 18:58:28;;;;;;;13.27;7.47;;;9.00;82.90;;;;;;10824117;32;20020;-73
2021/12/21 19:04:31;;;;;;;11.07;7.03;;;9.00;82.90;;;;;;10823903;33;20070;-74
2021/12/21 19:10:35;;;;;;;12.20;8.80;;;9.00;83.10;;;;;;10823906;33;20058;-73
2021/12/21 19:16:37;;;;;;;9.02;6.25;;;9.10;83.10;;;;;;10823614;33;20077;-73
2021/12/21 19:22:41;;;;;;;12.32;7.70;;;9.00;83.20;;;;;;10823558;33;20328;-74
2021/12/21 19:28:43;;;;;;;9.55;7.28;;;8.90;83.20;;;;;;10818788;33;20027;-74
2021/12/21 19:34:45;;;;;;;11.57;7.22;;;8.80;83.50;;;;;;10823129;33;20050;-74
2021/12/21 19:40:50;;;;;;;10.85;7.45;;;8.80;83.50;;;;;;10823081;32;20324;-71
2021/12/21 19:46:52;;;;;;;12.63;8.90;;;8.70;83.20;;;;;;10826843;32;20024;-70
2021/12/21 19:52:56;;;;;;;13.80;9.13;;;8.60;83.30;;;;;;10829163;32;20039;-71
2021/12/21 19:59:22;;;;;;;15.40;9.95;;;8.50;83.10;;;;;;10829066;33;20023;-71
2021/12/21 20:05:25;;;;;;;11.52;8.07;;;8.40;82.70;;;;;;10815789;33;20039;-71
2021/12/21 20:11:41;;;;;;;12.80;9.60;;;8.50;83.50;;;;;;10828702;33;20389;-71
2021/12/21 20:17:43;;;;;;;13.62;7.65;;;8.50;83.30;;;;;;10828627;33;20024;-71
2021/12/21 20:23:45;;;;;;;14.40;10.80;;;8.20;83.30;;;;;;10828340;32;20024;-70
2021/12/21 20:29:47;;;;;;;13.43;7.25;;;8.30;83.70;;;;;;10828194;33;20419;-71
2021/12/21 20:35:50;;;;;;;13.57;7.80;;;8.20;83.50;;;;;;10827992;33;20020;-69
2021/12/21 20:41:52;;;;;;;15.40;11.85;;;8.30;84.10;;;;;;10827436;33;20376;-71
2021/12/21 20:47:55;;;;;;;13.20;9.65;;;8.30;83.00;;;;;;10827035;33;20036;-71
2021/12/21 20:53:57;;;;;;;14.57;10.80;;;8.10;83.50;;;;;;10827331;33;20050;-71
2021/12/21 20:59:59;;;;;;;11.63;7.68;;;8.10;84.10;;;;;;10825927;32;20039;-71
2021/12/21 21:06:03;;;;;;;11.88;8.68;;;8.20;84.20;;;;;;10794732;33;20059;-71
2021/12/21 21:12:07;;;;;;;12.13;7.75;;;8.30;84.40;;;;;;10789289;33;20016;-71
2021/12/21 21:18:10;;;;;;;13.10;9.23;;;8.20;84.00;;;;;;10776413;33;20025;-71
2021/12/21 21:24:12;;;;;;;10.52;6.60;;;8.30;84.50;;;;;;10789379;33;20404;-71
2021/12/21 21:30:14;;;;;;;10.57;6.37;;;8.30;84.40;;;;;;10789433;33;20050;-71
2021/12/21 21:36:16;;;;;;;9.85;6.10;;;8.40;84.40;;;;;;10776245;33;20020;-71
2021/12/21 21:42:38;;;;;;;11.77;7.35;;;8.50;84.40;;;;;;10787722;33;20024;-70
2021/12/21 21:48:42;;;;;;;12.70;7.65;;;8.50;84.30;;;;;;10788988;33;20064;-71
2021/12/21 21:54:44;;;;;;;10.23;7.68;;;8.40;84.40;;;;;;10788819;33;20032;-71
2021/12/21 22:00:46;;;;;;;13.02;8.00;;;8.50;84.40;;;;;;10788719;33;20012;-71
2021/12/21 22:06:49;;;;;;;13.25;8.30;;;8.40;84.40;;;;;;10788192;33;20047;-71
2021/12/21 22:12:52;;;;;;;18.75;8.38;;;8.40;84.20;;;;;;10788304;33;20012;-71
2021/12/21 22:18:55;;;;;;;10.25;7.00;;;8.40;84.30;;;;;;10788372;33;20408;-71
2021/12/21 22:24:58;;;;;;;11.95;7.68;;;8.40;84.00;;;;;;10788123;33;20024;-71
2021/12/21 22:31:06;;;;;;;10.30;6.43;;;8.40;83.90;;;;;;10788137;33;20083;-71
2021/12/21 22:37:08;;;;;;;12.32;8.27;;;8.30;83.90;;;;;;10787861;32;20025;-71
2021/12/21 22:43:11;;;;;;;14.87;9.23;;;8.20;83.90;;;;;;10787728;33;20078;-71
2021/12/21 22:49:13;;;;;;;14.15;8.10;;;8.20;84.00;;;;;;10786550;33;20046;-71
2021/12/21 22:55:14;;;;;;;12.43;9.00;;;8.20;84.20;;;;;;10787459;33;20439;-71
2021/12/21 23:01:43;;;;;;;14.53;9.60;;;8.20;83.70;;;;;;10786499;33;20025;-71
2021/12/21 23:07:46;;;;;;;13.38;6.50;;;8.20;83.80;;;;;;10787239;33;20063;-74
2021/12/21 23:13:48;;;;;;;14.25;8.93;;;8.20;83.90;;;;;;10786972;33;20029;-73
2021/12/21 23:19:50;;;;;;;13.13;8.50;;;8.10;83.60;;;;;;10788646;33;20087;-74
2021/12/21 23:25:55;;;;;;;10.38;7.05;;;7.90;83.80;;;;;;10793266;33;20069;-73
2021/12/21 23:31:59;;;;;;;11.75;7.40;;;7.80;83.60;;;;;;10793050;33;20097;-73
2021/12/21 23:38:05;;;;;;;11.98;8.20;;;7.70;83.60;;;;;;10792980;33;20024;-74
2021/12/21 23:44:07;;;;;;;14.18;9.65;;;7.60;83.70;;;;;;10792649;33;20016;-73
2021/12/21 23:50:10;;;;;;;18.00;12.25;;;7.70;83.80;;;;;;10792549;33;20321;-73
2021/12/21 23:56:12;;;;;;;11.57;8.82;;;7.80;83.50;;;;;;10792390;33;20029;-73
